Flight Track Log - Related Links

Times and Time Zones

All times are in EDT time to prevent confusion due to time zone crossing. See the KAP46 flight status page for this flight to view local times or setup timezone preferences in your user account.

Time Position Orientation Groundspeed Altitude Reporting Facility
EDT Latitude Longitude Course Direction KTS MPH feet Rate Location/Type
Sun 06:27:42 PM 44.7661 -74.7089 158° South 150 173 4,900  Level Boston Center
Sun 06:28:42 PM 44.7331 -74.6961 165° South 140 161 5,500 545 Climbing Boston Center
Sun 06:29:54 PM 44.6939 -74.6711 156° South 135 155 6,100 500 Climbing Boston Center
Sun 06:30:00 PM 44.8165 -74.7762 158° South  Level FlightAware Approximate
Sun 06:30:54 PM 44.6444 -74.6489 162° South 146 168 6,600  Level Boston Center
Sun 06:31:54 PM 44.6031 -74.6269 159° South 151 174 6,900 200 Climbing Boston Center
Sun 06:32:54 PM 44.5556 -74.6106 166° South 163 188 7,000 50 Climbing Boston Center
Sun 06:33:54 PM 44.5081 -74.5856 159° South 174 200 7,000 -50 Level Boston Center
Sun 06:34:54 PM 44.4608 -74.5517 153° Southeast 187 215 6,900 -45 Descending Boston Center
Sun 06:36:06 PM 44.3983 -74.5436 175° South 187 215 6,900 45 Level Boston Center
Sun 06:37:06 PM 44.3503 -74.5567 191° South 180 207 7,000 50 Climbing Boston Center
Sun 06:38:06 PM 44.3042 -74.5608 184° South 180 207 7,000  Level Boston Center
Sun 06:39:06 PM 44.2583 -74.5619 181° South 180 207 7,000  Level Boston Center
Sun 06:40:06 PM 44.2106 -74.5575 176° South 180 207 7,000 -50 Level Boston Center
Sun 06:41:06 PM 44.1647 -74.5614 183° South 175 201 6,900 -50 Descending Boston Center
Sun 06:42:06 PM 44.1186 -74.5656 184° South 175 201 6,900  Level Boston Center
Sun 06:43:06 PM 44.0728 -74.5756 189° South 175 201 6,900  Level Boston Center
Sun 06:44:06 PM 44.0286 -74.5883 192° South 175 201 6,900  Level Boston Center
Sun 06:45:06 PM 43.9867 -74.6014 193° South 164 189 6,900  Level Boston Center
Sun 06:46:06 PM 43.9408 -74.6142 191° South 164 189 6,900 50 Level Boston Center
Sun 06:47:06 PM 43.8989 -74.6269 192° South 164 189 7,000 50 Climbing Boston Center
Sun 06:48:06 PM 43.8550 -74.6283 181° South 164 189 7,000  Level Boston Center
Sun 06:49:06 PM 43.8094 -74.6150 168° South 164 189 7,000  Level Boston Center
Sun 06:50:06 PM 43.7617 -74.5992 167° South 164 189 7,000  Level Boston Center
Sun 06:51:06 PM 43.7139 -74.5886 171° South 169 194 7,000  Level Boston Center
Sun 06:52:06 PM 43.6683 -74.5783 171° South 169 194 7,000  Level Boston Center
Sun 06:53:06 PM 43.6206 -74.5711 174° South 174 200 7,000  Level Boston Center
Sun 06:54:06 PM 43.5747 -74.5694 178° South 174 200 7,000  Level Boston Center
Sun 06:55:06 PM 43.5317 -74.5364 151° Southeast 174 200 7,000  Level Boston Center
Sun 06:56:06 PM 43.4883 -74.5092 155° Southeast 174 200 7,000  Level Boston Center
Sun 06:56:39 PM 43.4614 -74.4967 161° South 177 204 7,000  Level Boston Center
Sun 06:57:22 PM 43.4264 -74.4814 162° South 181 208 7,000  Level Boston Center
Sun 06:58:06 PM 43.3953 -74.4631 157° South 180 207 7,000  Level Boston Center
Sun 06:59:06 PM 43.3500 -74.4331 154° Southeast 180 207 7,000  Level Boston Center
Sun 07:00:06 PM 43.3092 -74.3889 142° Southeast 174 200 7,000  Level Boston Center
Sun 07:01:06 PM 43.2722 -74.3506 143° Southeast 174 200 7,000  Level Boston Center
Sun 07:02:25 PM 43.2208 -74.3006 145° Southeast 173 199 7,000  Level Boston Center
Sun 07:03:06 PM 43.1922 -74.2742 146° Southeast 174 200 7,000 -259 Level Boston Center
Sun 07:04:21 PM 43.1431 -74.2214 142° Southeast 185 213 6,500 -450 Descending Boston Center
Sun 07:05:06 PM 43.1122 -74.1836 138° Southeast 185 213 6,100 -571 Descending Boston Center
Sun 07:06:06 PM 43.0672 -74.1397 145° Southeast 190 219 5,500 -595 Descending Boston Center
Sun 07:07:17 PM 43.0178 -74.0872 142° Southeast 194 223 4,800 -550 Descending Boston Center
Sun 07:08:06 PM 42.9831 -74.0522 144° Southeast 195 224 4,400 -495 Descending Boston Center
Sun 07:09:06 PM 42.9439 -74.0114 143° Southeast 195 224 3,900 -500 Descending Boston Center
Sun 07:10:06 PM 42.8986 -73.9622 141° Southeast 195 224 3,400 -400 Descending Boston Center
Sun 07:11:06 PM 42.8681 -73.9244 138° Southeast 195 224 3,100 -448 Descending Boston Center
Sun 07:12:20 PM 42.8272 -73.8442 125° Southeast 175 201 2,400 -533 Descending Boston Center
Sun 07:13:21 PM 42.8008 -73.7900 124° Southeast 168 193 1,900 -563 Descending Boston Center
Sun 07:14:28 PM 42.7722 -73.7497 134° Southeast 133 153 1,200 -609 Descending Boston Center
Sun 07:15:29 PM 42.7489 -73.7717 215° Southwest 109 125 600 -590 Descending Boston Center
Sun 07:17:00 PM 42.7333 -73.8000 270° West  Level FlightAware Approximate
Sun 07:24:00 PM 42.7491 -73.8020 270° West  Level Estimated
Sun 07:25:00 PM 42.7491 -73.8020 270° West  Level Estimated
Sun 07:26:00 PM 42.7491 -73.8020 270° West  Level Estimated

Login

Don't have an account? Register now (free) for customized features, flight alerts, and more!